createdAt,value
2018-11-25T00:00:06.333Z,923.34
2018-11-25T00:00:19.313Z,923.34
2018-11-25T00:00:32.286Z,923.32
2018-11-25T00:00:45.258Z,923.38
2018-11-25T00:00:58.656Z,923.33
2018-11-25T00:01:11.639Z,923.39
2018-11-25T00:01:24.648Z,923.39
2018-11-25T00:01:37.669Z,923.36
2018-11-25T00:01:50.672Z,923.38
2018-11-25T00:02:03.627Z,923.38
2018-11-25T00:02:16.561Z,923.38
2018-11-25T00:02:29.533Z,923.4
2018-11-25T00:02:42.493Z,923.33
2018-11-25T00:02:55.441Z,923.38
2018-11-25T00:03:07.982Z,923.42
2018-11-25T00:03:20.956Z,923.37
2018-11-25T00:03:33.944Z,923.37
2018-11-25T00:03:46.921Z,923.4
2018-11-25T00:03:59.455Z,923.44
2018-11-25T00:04:12.481Z,923.41
2018-11-25T00:04:25.470Z,923.42
2018-11-25T00:04:37.989Z,923.41
2018-11-25T00:04:50.923Z,923.43
2018-11-25T00:05:03.858Z,923.41
2018-11-25T00:05:16.843Z,923.43
2018-11-25T00:05:29.390Z,923.42
2018-11-25T00:05:42.352Z,923.42
2018-11-25T00:05:55.410Z,923.42
2018-11-25T00:06:08.349Z,923.43
2018-11-25T00:06:21.285Z,923.43
2018-11-25T00:06:34.230Z,923.47
2018-11-25T00:06:47.219Z,923.44
2018-11-25T00:07:00.191Z,923.39
2018-11-25T00:07:12.720Z,923.36
2018-11-25T00:07:25.702Z,923.37
2018-11-25T00:07:44.815Z,923.39
2018-11-25T00:07:57.832Z,923.35
2018-11-25T00:08:10.821Z,923.42
2018-11-25T00:08:23.785Z,923.34
2018-11-25T00:08:36.770Z,923.32
2018-11-25T00:08:49.750Z,923.27
2018-11-25T00:09:02.763Z,923.28
2018-11-25T00:09:15.856Z,923.25
2018-11-25T00:09:28.848Z,923.27
2018-11-25T00:09:41.843Z,923.26
2018-11-25T00:09:54.850Z,923.26
2018-11-25T00:10:07.725Z,923.27
2018-11-25T00:10:20.668Z,923.26
2018-11-25T00:10:33.681Z,923.29
2018-11-25T00:10:46.719Z,923.33
2018-11-25T00:10:59.701Z,923.27
2018-11-25T00:11:12.681Z,923.31
2018-11-25T00:11:25.661Z,923.35
2018-11-25T00:11:38.671Z,923.35
2018-11-25T00:11:51.707Z,923.34
2018-11-25T00:12:04.622Z,923.35
2018-11-25T00:12:17.580Z,923.34
2018-11-25T00:12:30.588Z,923.46
2018-11-25T00:12:43.523Z,923.39
2018-11-25T00:12:56.507Z,923.43
2018-11-25T00:13:09.488Z,923.47
2018-11-25T00:13:22.832Z,923.49
2018-11-25T00:13:35.792Z,923.47
2018-11-25T00:13:48.834Z,923.5
2018-11-25T00:14:01.768Z,923.53
2018-11-25T00:14:14.767Z,923.52
2018-11-25T00:14:27.710Z,923.58
2018-11-25T00:14:40.718Z,923.63
2018-11-25T00:14:53.694Z,923.68
2018-11-25T00:15:06.655Z,923.71
2018-11-25T00:15:19.199Z,923.75
2018-11-25T00:15:32.214Z,923.74
2018-11-25T00:15:45.171Z,923.75
2018-11-25T00:15:58.180Z,923.77
2018-11-25T00:16:11.295Z,923.79
2018-11-25T00:16:24.253Z,923.8
2018-11-25T00:16:37.236Z,923.84
2018-11-25T00:16:50.258Z,923.82
2018-11-25T00:17:03.262Z,923.82
2018-11-25T00:17:16.333Z,923.83
2018-11-25T00:17:29.288Z,923.84
2018-11-25T00:17:41.839Z,923.86
2018-11-25T00:17:54.906Z,923.87
2018-11-25T00:18:07.916Z,923.89
2018-11-25T00:18:22.189Z,923.89
2018-11-25T00:18:35.149Z,923.91
2018-11-25T00:18:48.103Z,923.88
2018-11-25T00:19:01.091Z,923.89
2018-11-25T00:19:13.609Z,923.89
2018-11-25T00:19:26.525Z,923.92
2018-11-25T00:19:39.459Z,923.9
2018-11-25T00:19:51.944Z,923.9
2018-11-25T00:20:04.957Z,923.95
2018-11-25T00:20:17.949Z,923.9
2018-11-25T00:20:30.976Z,923.9
2018-11-25T00:20:43.934Z,923.88
2018-11-25T00:21:00.455Z,923.9
2018-11-25T00:21:13.426Z,923.96
2018-11-25T00:21:26.403Z,923.99
2018-11-25T00:21:39.450Z,923.97
2018-11-25T00:21:52.440Z,924
2018-11-25T00:22:05.472Z,923.99
2018-11-25T00:22:18.444Z,924.01
2018-11-25T00:22:31.406Z,924.01
2018-11-25T00:22:44.431Z,924.03
2018-11-25T00:22:57.353Z,924.03
2018-11-25T00:23:10.386Z,924.01
2018-11-25T00:23:23.334Z,924.01
2018-11-25T00:23:36.235Z,924.04
2018-11-25T00:23:49.241Z,924.03
2018-11-25T00:24:02.219Z,924.01
2018-11-25T00:24:15.170Z,924.03
2018-11-25T00:24:28.184Z,924.03
2018-11-25T00:24:41.145Z,923.99
2018-11-25T00:24:54.243Z,924.08
2018-11-25T00:25:07.126Z,924.03
2018-11-25T00:25:20.121Z,924.04
2018-11-25T00:25:33.070Z,924.01
2018-11-25T00:25:46.024Z,924.04
2018-11-25T00:25:59.036Z,924.01
2018-11-25T00:26:11.990Z,923.96
2018-11-25T00:26:24.940Z,924.01
2018-11-25T00:26:37.417Z,924.03
2018-11-25T00:26:50.401Z,924
2018-11-25T00:27:03.356Z,923.98
2018-11-25T00:27:16.287Z,924.03
2018-11-25T00:27:29.294Z,924.03
2018-11-25T00:27:42.226Z,923.97
2018-11-25T00:27:55.215Z,923.99
2018-11-25T00:28:08.166Z,923.99
2018-11-25T00:28:21.140Z,923.95
2018-11-25T00:28:34.068Z,923.97
2018-11-25T00:28:47.103Z,923.97
2018-11-25T00:29:00.113Z,923.98
2018-11-25T00:29:13.080Z,923.98
2018-11-25T00:29:26.079Z,923.96
2018-11-25T00:29:39.026Z,923.96
2018-11-25T00:29:51.558Z,923.94
2018-11-25T00:30:04.588Z,923.94
2018-11-25T00:30:17.611Z,923.97
2018-11-25T00:30:30.628Z,923.93
2018-11-25T00:30:43.599Z,923.94
2018-11-25T00:30:56.062Z,923.96
2018-11-25T00:31:17.429Z,923.98
2018-11-25T00:31:30.426Z,923.93
2018-11-25T00:31:43.393Z,923.93
2018-11-25T00:31:56.389Z,923.95
2018-11-25T00:32:08.954Z,923.89
2018-11-25T00:32:21.867Z,923.96
2018-11-25T00:32:34.877Z,923.93
2018-11-25T00:32:47.909Z,923.91
2018-11-25T00:33:00.897Z,923.91
2018-11-25T00:33:13.881Z,923.87
2018-11-25T00:33:26.875Z,923.87
2018-11-25T00:33:39.771Z,923.82
2018-11-25T00:33:52.751Z,923.81
2018-11-25T00:34:05.718Z,923.82
2018-11-25T00:34:18.712Z,923.78
2018-11-25T00:34:31.685Z,923.82
2018-11-25T00:34:44.616Z,923.8
2018-11-25T00:34:57.604Z,923.77
2018-11-25T00:35:10.525Z,923.79
2018-11-25T00:35:24.669Z,923.74
2018-11-25T00:35:37.636Z,923.74
2018-11-25T00:35:50.721Z,923.76
2018-11-25T00:36:03.652Z,923.75
2018-11-25T00:36:16.553Z,923.74
2018-11-25T00:36:29.533Z,923.8
2018-11-25T00:36:42.505Z,923.81
2018-11-25T00:36:55.472Z,923.75
2018-11-25T00:37:08.480Z,923.82
2018-11-25T00:37:21.402Z,923.81
2018-11-25T00:37:34.453Z,923.82
2018-11-25T00:37:54.520Z,923.84
2018-11-25T00:38:07.497Z,923.88
2018-11-25T00:38:20.482Z,923.88
2018-11-25T00:38:33.420Z,923.9
2018-11-25T00:38:46.401Z,923.93
2018-11-25T00:38:59.382Z,923.94
2018-11-25T00:39:12.370Z,923.93
2018-11-25T00:39:25.403Z,923.95
2018-11-25T00:39:38.324Z,923.97
2018-11-25T00:39:51.295Z,923.95
2018-11-25T00:40:04.294Z,923.98
2018-11-25T00:40:17.207Z,923.99
2018-11-25T00:40:30.216Z,923.95
2018-11-25T00:40:43.137Z,923.91
2018-11-25T00:40:55.679Z,923.99
2018-11-25T00:41:08.693Z,923.96
2018-11-25T00:41:21.667Z,923.98
2018-11-25T00:41:34.565Z,924
2018-11-25T00:41:47.560Z,923.99
2018-11-25T00:42:00.533Z,923.97
2018-11-25T00:42:13.479Z,923.98
2018-11-25T00:42:26.508Z,924.03
2018-11-25T00:42:39.501Z,924.01
2018-11-25T00:42:52.444Z,924
2018-11-25T00:43:05.019Z,924.02
2018-11-25T00:43:18.019Z,924.01
2018-11-25T00:43:31.060Z,924.01
2018-11-25T00:43:43.948Z,924.01
2018-11-25T00:43:56.877Z,924.01
2018-11-25T00:44:09.787Z,924.02
2018-11-25T00:44:22.792Z,924.04
2018-11-25T00:44:35.812Z,924
2018-11-25T00:44:48.808Z,924.01
2018-11-25T00:45:01.800Z,924.01
2018-11-25T00:45:14.762Z,923.98
2018-11-25T00:45:27.703Z,923.99
2018-11-25T00:45:40.686Z,924.03
2018-11-25T00:45:53.676Z,923.99
2018-11-25T00:46:06.659Z,923.99
2018-11-25T00:46:20.889Z,923.98
2018-11-25T00:46:33.886Z,924.02
2018-11-25T00:46:46.913Z,924.05
2018-11-25T00:46:59.397Z,924.03
2018-11-25T00:47:12.332Z,923.99
2018-11-25T00:47:25.295Z,923.99
2018-11-25T00:47:38.299Z,923.99
2018-11-25T00:47:51.228Z,924.01
2018-11-25T00:48:04.190Z,924.01
2018-11-25T00:48:17.208Z,923.99
2018-11-25T00:48:30.098Z,924.02
2018-11-25T00:48:43.066Z,924.03
2018-11-25T00:48:56.096Z,924.01
2018-11-25T00:49:09.094Z,924
2018-11-25T00:49:22.090Z,924.01
2018-11-25T00:49:35.052Z,924.03
2018-11-25T00:49:48.027Z,924.02
2018-11-25T00:50:00.979Z,924.03
2018-11-25T00:50:13.926Z,924.06
2018-11-25T00:50:26.895Z,924.08
2018-11-25T00:50:39.889Z,924.04
2018-11-25T00:50:52.857Z,924.07
2018-11-25T00:51:05.827Z,924.04
2018-11-25T00:51:18.724Z,924.07
2018-11-25T00:51:31.241Z,924.01
2018-11-25T00:51:44.249Z,924.04
2018-11-25T00:51:57.287Z,924.03
2018-11-25T00:52:10.291Z,924.05
2018-11-25T00:52:23.310Z,924.06
2018-11-25T00:52:36.236Z,924.08
2018-11-25T00:52:49.222Z,924.05
2018-11-25T00:53:02.177Z,924.04
2018-11-25T00:53:15.109Z,924.08
2018-11-25T00:53:28.094Z,924.08
2018-11-25T00:53:41.068Z,924.09
2018-11-25T00:53:54.043Z,924.08
2018-11-25T00:54:06.576Z,924.07
2018-11-25T00:54:19.544Z,924.1
2018-11-25T00:54:32.564Z,924.15
2018-11-25T00:54:45.104Z,924.11
2018-11-25T00:54:58.077Z,924.13
2018-11-25T00:55:11.028Z,924.12
2018-11-25T00:55:23.966Z,924.14
2018-11-25T00:55:36.956Z,924.13
2018-11-25T00:55:49.967Z,924.14
2018-11-25T00:56:02.931Z,924.13
2018-11-25T00:56:15.947Z,924.15
2018-11-25T00:56:28.892Z,924.1
2018-11-25T00:56:41.829Z,924.15
2018-11-25T00:56:54.769Z,924.12
2018-11-25T00:57:07.763Z,924.14
2018-11-25T00:57:20.726Z,924.14
2018-11-25T00:57:33.702Z,924.13
2018-11-25T00:57:46.682Z,924.13
2018-11-25T00:57:59.736Z,924.13
2018-11-25T00:58:12.295Z,924.14
2018-11-25T00:58:25.293Z,924.13
2018-11-25T00:58:38.240Z,924.15
2018-11-25T00:58:51.211Z,924.15
2018-11-25T00:59:04.179Z,924.15
2018-11-25T00:59:17.135Z,924.14
2018-11-25T00:59:30.074Z,924.16
2018-11-25T00:59:43.059Z,924.17
2018-11-25T00:59:56.048Z,924.16
2018-11-25T01:00:09.042Z,924.18
2018-11-25T01:00:21.924Z,924.17
2018-11-25T01:00:34.882Z,924.13
2018-11-25T01:00:47.891Z,924.15
2018-11-25T01:01:00.944Z,924.19
2018-11-25T01:01:13.479Z,924.18
2018-11-25T01:01:27.268Z,924.15
2018-11-25T01:01:40.315Z,924.15
2018-11-25T01:01:53.335Z,924.18
2018-11-25T01:02:06.379Z,924.19
2018-11-25T01:02:19.299Z,924.21
2018-11-25T01:02:32.270Z,924.2
2018-11-25T01:02:45.283Z,924.2
2018-11-25T01:02:58.223Z,924.23
2018-11-25T01:03:11.206Z,924.26
2018-11-25T01:03:24.182Z,924.27
2018-11-25T01:03:37.185Z,924.3
2018-11-25T01:03:50.142Z,924.3
2018-11-25T01:04:03.173Z,924.35
2018-11-25T01:04:16.104Z,924.31
2018-11-25T01:04:29.114Z,924.35
2018-11-25T01:04:42.056Z,924.35
2018-11-25T01:04:55.077Z,924.33
2018-11-25T01:05:08.080Z,924.35
2018-11-25T01:05:20.590Z,924.33
2018-11-25T01:05:33.530Z,924.32
2018-11-25T01:05:46.539Z,924.39
2018-11-25T01:05:59.494Z,924.36
2018-11-25T01:06:12.502Z,924.35
2018-11-25T01:06:25.536Z,924.37
2018-11-25T01:06:38.802Z,924.35
2018-11-25T01:06:51.790Z,924.37
2018-11-25T01:07:04.810Z,924.36
2018-11-25T01:07:17.828Z,924.42
2018-11-25T01:07:30.864Z,924.38
2018-11-25T01:07:43.823Z,924.37
2018-11-25T01:07:56.813Z,924.36
2018-11-25T01:08:09.872Z,924.37
2018-11-25T01:08:22.882Z,924.33
2018-11-25T01:08:35.859Z,924.34
2018-11-25T01:08:48.808Z,924.39
2018-11-25T01:09:01.760Z,924.36
2018-11-25T01:09:14.719Z,924.36
2018-11-25T01:09:27.689Z,924.39
2018-11-25T01:09:40.596Z,924.33
2018-11-25T01:09:53.528Z,924.41
2018-11-25T01:10:06.454Z,924.35
2018-11-25T01:10:19.478Z,924.39
2018-11-25T01:10:32.458Z,924.37
2018-11-25T01:10:45.475Z,924.37
2018-11-25T01:10:58.434Z,924.38
2018-11-25T01:11:11.410Z,924.43
2018-11-25T01:11:24.381Z,924.37
2018-11-25T01:11:37.310Z,924.46
2018-11-25T01:11:50.321Z,924.45
2018-11-25T01:12:03.300Z,924.48
2018-11-25T01:12:16.305Z,924.43
2018-11-25T01:12:29.280Z,924.45
2018-11-25T01:12:42.292Z,924.47
2018-11-25T01:12:55.260Z,924.49
2018-11-25T01:13:08.290Z,924.46
2018-11-25T01:13:21.271Z,924.48
2018-11-25T01:13:34.247Z,924.48
2018-11-25T01:13:47.259Z,924.49
2018-11-25T01:14:00.284Z,924.46
2018-11-25T01:14:13.321Z,924.52
2018-11-25T01:14:26.248Z,924.49
2018-11-25T01:14:39.202Z,924.46
2018-11-25T01:14:51.707Z,924.51
2018-11-25T01:15:04.703Z,924.51
2018-11-25T01:15:17.652Z,924.51
2018-11-25T01:15:30.573Z,924.44
2018-11-25T01:15:43.535Z,924.46
2018-11-25T01:15:56.460Z,924.44
2018-11-25T01:16:08.973Z,924.46
2018-11-25T01:16:21.970Z,924.45
2018-11-25T01:16:35.869Z,924.44
2018-11-25T01:16:48.887Z,924.48
2018-11-25T01:17:01.851Z,924.48
2018-11-25T01:17:14.355Z,924.51
2018-11-25T01:17:27.379Z,924.46
2018-11-25T01:17:40.321Z,924.45
2018-11-25T01:17:53.333Z,924.5
2018-11-25T01:18:06.355Z,924.48
2018-11-25T01:18:19.375Z,924.47
2018-11-25T01:18:32.274Z,924.48
2018-11-25T01:18:44.806Z,924.46
2018-11-25T01:18:57.746Z,924.5
2018-11-25T01:19:10.775Z,924.48
2018-11-25T01:19:23.828Z,924.5
2018-11-25T01:19:36.802Z,924.5
2018-11-25T01:19:49.797Z,924.54
2018-11-25T01:20:02.786Z,924.52
2018-11-25T01:20:15.753Z,924.55
2018-11-25T01:20:28.737Z,924.53
2018-11-25T01:20:41.725Z,924.55
2018-11-25T01:20:54.760Z,924.51
2018-11-25T01:21:07.723Z,924.54
2018-11-25T01:21:20.697Z,924.52
2018-11-25T01:21:33.681Z,924.55
2018-11-25T01:21:46.660Z,924.54
2018-11-25T01:21:59.634Z,924.56
2018-11-25T01:22:12.639Z,924.57
2018-11-25T01:22:25.599Z,924.59
2018-11-25T01:22:38.611Z,924.54
2018-11-25T01:22:51.574Z,924.51
2018-11-25T01:23:04.567Z,924.5
2018-11-25T01:23:17.577Z,924.53
2018-11-25T01:23:30.597Z,924.51
2018-11-25T01:23:43.537Z,924.54
2018-11-25T01:23:56.541Z,924.54
2018-11-25T01:24:09.512Z,924.58
2018-11-25T01:24:22.459Z,924.49
2018-11-25T01:24:35.472Z,924.55
2018-11-25T01:24:48.437Z,924.54
2018-11-25T01:25:01.371Z,924.54
2018-11-25T01:25:14.353Z,924.58
2018-11-25T01:25:26.902Z,924.57
2018-11-25T01:25:39.872Z,924.53
2018-11-25T01:25:52.798Z,924.56
2018-11-25T01:26:05.753Z,924.51
2018-11-25T01:26:18.285Z,924.53
2018-11-25T01:26:31.245Z,924.56
2018-11-25T01:26:44.280Z,924.56
2018-11-25T01:26:57.288Z,924.55
2018-11-25T01:27:10.263Z,924.56
2018-11-25T01:27:23.253Z,924.57
2018-11-25T01:27:36.333Z,924.55
2018-11-25T01:27:49.282Z,924.59
2018-11-25T01:28:02.245Z,924.62
2018-11-25T01:28:15.274Z,924.63
2018-11-25T01:28:27.843Z,924.66
2018-11-25T01:28:40.781Z,924.63
2018-11-25T01:28:53.735Z,924.6
2018-11-25T01:29:06.746Z,924.6
2018-11-25T01:29:19.730Z,924.61
2018-11-25T01:29:32.757Z,924.61
2018-11-25T01:29:45.756Z,924.63
2018-11-25T01:29:58.706Z,924.59
2018-11-25T01:30:11.705Z,924.63
2018-11-25T01:30:24.231Z,924.6
2018-11-25T01:30:37.210Z,924.59
2018-11-25T01:30:49.735Z,924.61
2018-11-25T01:31:02.725Z,924.57
2018-11-25T01:31:15.717Z,924.61
2018-11-25T01:31:28.677Z,924.59
2018-11-25T01:31:42.027Z,924.58
2018-11-25T01:31:54.550Z,924.58
2018-11-25T01:32:07.099Z,924.57
2018-11-25T01:32:20.108Z,924.58
2018-11-25T01:32:33.137Z,924.6
2018-11-25T01:32:46.112Z,924.61
2018-11-25T01:32:59.125Z,924.62
2018-11-25T01:33:12.072Z,924.61
2018-11-25T01:33:25.049Z,924.59
2018-11-25T01:33:38.077Z,924.62
2018-11-25T01:33:51.072Z,924.59
2018-11-25T01:34:04.029Z,924.62
2018-11-25T01:34:17.008Z,924.61
2018-11-25T01:34:30.009Z,924.62
2018-11-25T01:34:43.016Z,924.64
2018-11-25T01:35:02.253Z,924.64
2018-11-25T01:35:15.214Z,924.65
2018-11-25T01:35:28.264Z,924.66
2018-11-25T01:35:41.232Z,924.63
2018-11-25T01:35:54.215Z,924.61
2018-11-25T01:36:07.179Z,924.66
2018-11-25T01:36:20.162Z,924.63
2018-11-25T01:36:33.136Z,924.62
2018-11-25T01:36:46.169Z,924.68
2018-11-25T01:36:59.172Z,924.65
2018-11-25T01:37:12.107Z,924.67
2018-11-25T01:37:25.071Z,924.66
2018-11-25T01:37:38.092Z,924.69
2018-11-25T01:37:51.071Z,924.64
2018-11-25T01:38:04.066Z,924.67
2018-11-25T01:38:17.044Z,924.68
2018-11-25T01:38:29.976Z,924.67
2018-11-25T01:38:42.951Z,924.68
2018-11-25T01:38:55.928Z,924.69
2018-11-25T01:39:08.932Z,924.71
2018-11-25T01:39:21.893Z,924.71
2018-11-25T01:39:34.865Z,924.69
2018-11-25T01:39:47.875Z,924.7
2018-11-25T01:40:00.832Z,924.69
2018-11-25T01:40:13.813Z,924.67
2018-11-25T01:40:26.891Z,924.74
2018-11-25T01:40:39.930Z,924.71
2018-11-25T01:40:52.975Z,924.75
2018-11-25T01:41:05.980Z,924.72
2018-11-25T01:41:18.920Z,924.73
2018-11-25T01:41:31.886Z,924.73
2018-11-25T01:41:44.871Z,924.76
2018-11-25T01:41:57.815Z,924.71
2018-11-25T01:42:10.811Z,924.73
2018-11-25T01:42:23.790Z,924.74
2018-11-25T01:42:36.773Z,924.73
2018-11-25T01:42:49.770Z,924.72
2018-11-25T01:43:02.800Z,924.73
2018-11-25T01:43:15.805Z,924.72
2018-11-25T01:43:28.770Z,924.73
2018-11-25T01:43:41.747Z,924.72
2018-11-25T01:43:54.668Z,924.71
2018-11-25T01:44:07.645Z,924.73
2018-11-25T01:44:20.634Z,924.79
2018-11-25T01:44:33.557Z,924.73
2018-11-25T01:44:46.556Z,924.78
2018-11-25T01:44:59.511Z,924.75
2018-11-25T01:45:12.441Z,924.77
2018-11-25T01:45:25.468Z,924.77
2018-11-25T01:45:38.450Z,924.81
2018-11-25T01:45:51.401Z,924.83
2018-11-25T01:46:04.367Z,924.82
2018-11-25T01:46:17.314Z,924.81
2018-11-25T01:46:30.333Z,924.79
2018-11-25T01:46:43.328Z,924.79
2018-11-25T01:46:57.073Z,924.86
2018-11-25T01:47:10.017Z,924.83
2018-11-25T01:47:22.984Z,924.82
2018-11-25T01:47:35.926Z,924.82
2018-11-25T01:47:49.002Z,924.84
2018-11-25T01:48:02.003Z,924.82
2018-11-25T01:48:14.979Z,924.82
2018-11-25T01:48:27.969Z,924.86
2018-11-25T01:48:40.897Z,924.82
2018-11-25T01:48:53.870Z,924.84
2018-11-25T01:49:06.873Z,924.83
2018-11-25T01:49:19.798Z,924.83
2018-11-25T01:49:32.788Z,924.85
2018-11-25T01:49:45.768Z,924.86
2018-11-25T01:49:58.735Z,924.86
2018-11-25T01:50:11.733Z,924.83
2018-11-25T01:50:24.743Z,924.83
2018-11-25T01:50:37.736Z,924.84
2018-11-25T01:50:50.653Z,924.84
2018-11-25T01:51:03.701Z,924.87
2018-11-25T01:51:16.733Z,924.82
2018-11-25T01:51:29.774Z,924.83
2018-11-25T01:51:42.768Z,924.87
2018-11-25T01:51:55.760Z,924.87
2018-11-25T01:52:08.732Z,924.84
2018-11-25T01:52:21.744Z,924.82
2018-11-25T01:52:34.685Z,924.87
2018-11-25T01:52:47.617Z,924.86
2018-11-25T01:53:00.545Z,924.85
2018-11-25T01:53:13.515Z,924.86
2018-11-25T01:53:26.481Z,924.84
2018-11-25T01:53:39.501Z,924.89
2018-11-25T01:53:52.471Z,924.88
2018-11-25T01:54:05.425Z,924.88
2018-11-25T01:54:18.374Z,924.9
2018-11-25T01:54:31.384Z,924.88
2018-11-25T01:54:44.358Z,924.88
2018-11-25T01:54:57.377Z,924.93
2018-11-25T01:55:10.336Z,924.89
2018-11-25T01:55:23.358Z,924.85
2018-11-25T01:55:35.900Z,924.89
2018-11-25T01:55:48.856Z,924.84
2018-11-25T01:56:01.877Z,924.88
2018-11-25T01:56:14.845Z,924.86
2018-11-25T01:56:27.819Z,924.87
2018-11-25T01:56:40.771Z,924.87
2018-11-25T01:56:53.760Z,924.85
2018-11-25T01:57:06.696Z,924.86
2018-11-25T01:57:19.595Z,924.88
2018-11-25T01:57:32.523Z,924.89
2018-11-25T01:57:45.500Z,924.86
2018-11-25T01:57:58.436Z,924.84
2018-11-25T01:58:11.383Z,924.85
2018-11-25T01:58:24.337Z,924.85
2018-11-25T01:58:37.278Z,924.89
2018-11-25T01:58:50.260Z,924.84
2018-11-25T01:59:04.725Z,924.85
2018-11-25T01:59:17.761Z,924.84
2018-11-25T01:59:30.736Z,924.84
2018-11-25T01:59:43.752Z,924.82
2018-11-25T01:59:56.717Z,924.83
2018-11-25T02:00:09.680Z,924.81
2018-11-25T02:00:22.660Z,924.78
2018-11-25T02:00:35.609Z,924.81
2018-11-25T02:00:48.586Z,924.8
2018-11-25T02:01:01.599Z,924.82
2018-11-25T02:01:14.621Z,924.82
2018-11-25T02:01:27.639Z,924.78
2018-11-25T02:01:40.593Z,924.78
2018-11-25T02:01:54.630Z,924.79
2018-11-25T02:02:07.536Z,924.79
2018-11-25T02:02:20.493Z,924.77
2018-11-25T02:02:33.463Z,924.75
2018-11-25T02:02:46.447Z,924.8
2018-11-25T02:02:59.463Z,924.75
2018-11-25T02:03:11.976Z,924.77
2018-11-25T02:03:24.891Z,924.76
2018-11-25T02:03:37.837Z,924.77
2018-11-25T02:03:50.827Z,924.79
2018-11-25T02:04:03.776Z,924.75
2018-11-25T02:04:16.754Z,924.78
2018-11-25T02:04:29.720Z,924.75
2018-11-25T02:04:42.661Z,924.77
2018-11-25T02:04:55.646Z,924.77
2018-11-25T02:05:08.658Z,924.74
2018-11-25T02:05:21.686Z,924.78
2018-11-25T02:05:34.632Z,924.78
2018-11-25T02:05:47.631Z,924.79
2018-11-25T02:06:00.584Z,924.78
2018-11-25T02:06:13.568Z,924.75
2018-11-25T02:06:26.537Z,924.77
2018-11-25T02:06:39.514Z,924.76
2018-11-25T02:06:52.521Z,924.73
2018-11-25T02:07:05.808Z,924.76
2018-11-25T02:07:18.778Z,924.75
2018-11-25T02:07:33.117Z,924.75
2018-11-25T02:07:46.122Z,924.74
2018-11-25T02:07:59.150Z,924.77
2018-11-25T02:08:12.113Z,924.74
2018-11-25T02:08:25.122Z,924.79
2018-11-25T02:08:38.176Z,924.74
2018-11-25T02:08:51.197Z,924.72
2018-11-25T02:09:04.202Z,924.74
2018-11-25T02:09:17.164Z,924.72
2018-11-25T02:09:30.152Z,924.73
2018-11-25T02:09:43.213Z,924.74
2018-11-25T02:09:56.193Z,924.67
2018-11-25T02:10:09.190Z,924.68
2018-11-25T02:10:22.140Z,924.71
2018-11-25T02:10:35.120Z,924.68
2018-11-25T02:10:48.108Z,924.67
2018-11-25T02:11:01.121Z,924.66
2018-11-25T02:11:14.079Z,924.68
2018-11-25T02:11:27.005Z,924.64
2018-11-25T02:11:40.043Z,924.64
2018-11-25T02:11:53.034Z,924.64
2018-11-25T02:12:05.603Z,924.67
2018-11-25T02:12:18.634Z,924.66
2018-11-25T02:12:31.594Z,924.64
2018-11-25T02:12:44.627Z,924.64
2018-11-25T02:12:57.197Z,924.63
2018-11-25T02:13:10.237Z,924.63
2018-11-25T02:13:23.210Z,924.65
2018-11-25T02:13:36.152Z,924.64
2018-11-25T02:13:49.113Z,924.6
2018-11-25T02:14:02.133Z,924.64
2018-11-25T02:14:15.099Z,924.6
2018-11-25T02:14:28.019Z,924.62
2018-11-25T02:14:41.024Z,924.62
2018-11-25T02:14:53.582Z,924.66
2018-11-25T02:15:06.525Z,924.64
2018-11-25T02:15:19.051Z,924.64
2018-11-25T02:15:31.566Z,924.64
2018-11-25T02:15:44.537Z,924.64
2018-11-25T02:15:57.553Z,924.63
2018-11-25T02:16:10.512Z,924.6
2018-11-25T02:16:23.045Z,924.61
2018-11-25T02:16:36.003Z,924.61
2018-11-25T02:16:48.968Z,924.62
2018-11-25T02:17:02.280Z,924.64
2018-11-25T02:17:15.266Z,924.63
2018-11-25T02:17:28.265Z,924.65
2018-11-25T02:17:41.314Z,924.61
2018-11-25T02:17:54.291Z,924.61
2018-11-25T02:18:07.285Z,924.63
2018-11-25T02:18:20.346Z,924.63
2018-11-25T02:18:33.302Z,924.66
2018-11-25T02:18:46.295Z,924.6
2018-11-25T02:18:59.265Z,924.59
2018-11-25T02:19:12.218Z,924.58
2018-11-25T02:19:25.196Z,924.57
2018-11-25T02:19:37.735Z,924.55
2018-11-25T02:19:50.741Z,924.53
2018-11-25T02:20:03.238Z,924.56
2018-11-25T02:20:16.227Z,924.52
2018-11-25T02:20:29.245Z,924.53
2018-11-25T02:20:42.196Z,924.5
2018-11-25T02:20:55.215Z,924.5
2018-11-25T02:21:08.224Z,924.49
2018-11-25T02:21:21.244Z,924.5
2018-11-25T02:21:34.214Z,924.52
2018-11-25T02:21:47.244Z,924.52
2018-11-25T02:22:00.243Z,924.49
2018-11-25T02:22:13.139Z,924.52
2018-11-25T02:22:26.136Z,924.49
2018-11-25T02:22:38.675Z,924.54
2018-11-25T02:22:51.680Z,924.5
2018-11-25T02:23:04.697Z,924.54
2018-11-25T02:23:17.667Z,924.51
2018-11-25T02:23:30.583Z,924.49
2018-11-25T02:23:43.617Z,924.49
2018-11-25T02:23:56.549Z,924.47
2018-11-25T02:24:09.544Z,924.48
2018-11-25T02:24:22.562Z,924.47
2018-11-25T02:24:35.594Z,924.45
2018-11-25T02:24:48.048Z,924.53
2018-11-25T02:25:00.961Z,924.48
2018-11-25T02:25:13.943Z,924.49
2018-11-25T02:25:26.400Z,924.48
2018-11-25T02:25:39.376Z,924.49
2018-11-25T02:25:52.404Z,924.49
2018-11-25T02:26:05.340Z,924.51
2018-11-25T02:26:18.292Z,924.51
2018-11-25T02:26:31.252Z,924.49
2018-11-25T02:26:44.221Z,924.47
2018-11-25T02:26:57.225Z,924.47
2018-11-25T02:27:10.263Z,924.47
2018-11-25T02:27:23.257Z,924.5
2018-11-25T02:27:36.263Z,924.49
2018-11-25T02:27:49.294Z,924.47
2018-11-25T02:28:01.841Z,924.51
2018-11-25T02:28:14.813Z,924.49
2018-11-25T02:28:27.777Z,924.46
2018-11-25T02:28:40.733Z,924.5
2018-11-25T02:28:53.697Z,924.48
2018-11-25T02:29:06.672Z,924.47
2018-11-25T02:29:19.655Z,924.48
2018-11-25T02:29:32.653Z,924.47
2018-11-25T02:29:45.639Z,924.48
2018-11-25T02:29:58.585Z,924.49
2018-11-25T02:30:11.603Z,924.5
2018-11-25T02:30:24.593Z,924.48
2018-11-25T02:30:37.540Z,924.46
2018-11-25T02:30:50.500Z,924.46
2018-11-25T02:31:03.456Z,924.47
2018-11-25T02:31:16.473Z,924.49
2018-11-25T02:31:29.377Z,924.47
2018-11-25T02:31:42.391Z,924.49
2018-11-25T02:31:55.382Z,924.45
2018-11-25T02:32:08.980Z,924.48
2018-11-25T02:32:21.947Z,924.46
2018-11-25T02:32:34.894Z,924.45
2018-11-25T02:32:47.862Z,924.43
2018-11-25T02:33:00.815Z,924.46
2018-11-25T02:33:13.819Z,924.43
2018-11-25T02:33:26.858Z,924.43
2018-11-25T02:33:39.819Z,924.44
2018-11-25T02:33:52.863Z,924.42
2018-11-25T02:34:05.826Z,924.44
2018-11-25T02:34:18.783Z,924.41
2018-11-25T02:34:31.712Z,924.4
2018-11-25T02:34:44.710Z,924.45
2018-11-25T02:34:57.761Z,924.44
2018-11-25T02:35:10.775Z,924.46
2018-11-25T02:35:23.710Z,924.44
2018-11-25T02:35:36.204Z,924.43
2018-11-25T02:35:49.179Z,924.42
2018-11-25T02:36:02.191Z,924.45
2018-11-25T02:36:15.231Z,924.46
2018-11-25T02:36:28.170Z,924.42
2018-11-25T02:36:41.163Z,924.45
2018-11-25T02:36:54.094Z,924.48
2018-11-25T02:37:07.063Z,924.44
2018-11-25T02:37:20.008Z,924.46
2018-11-25T02:37:33.033Z,924.48
2018-11-25T02:37:45.508Z,924.49
2018-11-25T02:37:58.524Z,924.5
2018-11-25T02:38:11.516Z,924.44
2018-11-25T02:38:24.461Z,924.45
2018-11-25T02:38:37.510Z,924.49
2018-11-25T02:38:50.469Z,924.46
2018-11-25T02:39:03.427Z,924.45
2018-11-25T02:39:16.437Z,924.43
2018-11-25T02:39:29.394Z,924.43
2018-11-25T02:39:42.385Z,924.45
2018-11-25T02:39:55.344Z,924.44
2018-11-25T02:40:08.294Z,924.42
2018-11-25T02:40:21.289Z,924.43
2018-11-25T02:40:34.237Z,924.44
2018-11-25T02:40:47.206Z,924.45
2018-11-25T02:41:00.129Z,924.45
2018-11-25T02:41:13.096Z,924.41
2018-11-25T02:41:26.063Z,924.42
2018-11-25T02:41:38.589Z,924.43
2018-11-25T02:41:51.606Z,924.43
2018-11-25T02:42:04.620Z,924.43
2018-11-25T02:42:17.606Z,924.41
2018-11-25T02:42:30.562Z,924.42
2018-11-25T02:42:43.548Z,924.41